Time;durP1;ratioP1;P1;durP2;ratioP2;P2;SDS_P1;SDS_P2;PMS_P1;PMS_P2;Temp;Humidity;BMP_temperature;BMP_pressure;BME280_temperature;BME280_humidity;BME280_pressure;Samples;Min_cycle;Max_cycle;Signal;HPM_P1;HPM_P2
2021/04/07 00:02:40;;;;;;;2.13;2.03;;;3.20;71.10;;;;;;6277318;28;20470;-63
2021/04/07 00:05:44;;;;;;;3.87;2.47;;;3.10;71.80;;;;;;6277331;28;20561;-63
2021/04/07 00:08:49;;;;;;;3.47;2.73;;;3.10;71.70;;;;;;6277296;28;20974;-62
2021/04/07 00:11:52;;;;;;;2.50;2.30;;;3.10;71.60;;;;;;6277403;28;20470;-62
2021/04/07 00:14:54;;;;;;;2.80;2.60;;;3.10;71.60;;;;;;6276907;28;20481;-62
2021/04/07 00:17:56;;;;;;;2.20;2.10;;;3.00;72.30;;;;;;6277556;28;20481;-62
2021/04/07 00:20:59;;;;;;;3.00;1.90;;;3.10;72.20;;;;;;6277046;28;20632;-63
2021/04/07 00:24:01;;;;;;;3.47;2.83;;;3.00;71.80;;;;;;6277017;28;20470;-63
2021/04/07 00:27:09;;;;;;;3.97;2.83;;;3.00;72.00;;;;;;6277002;28;20466;-63
2021/04/07 00:30:12;;;;;;;2.13;2.03;;;3.00;71.80;;;;;;6276743;28;20807;-62
2021/04/07 00:33:16;;;;;;;3.23;2.60;;;2.90;71.80;;;;;;6276776;28;20481;-62
2021/04/07 00:36:18;;;;;;;2.90;2.67;;;2.90;72.20;;;;;;6276719;28;20470;-63
2021/04/07 00:39:21;;;;;;;2.63;2.20;;;2.90;72.50;;;;;;6276727;28;20958;-63
2021/04/07 00:42:24;;;;;;;2.83;2.33;;;2.90;72.70;;;;;;6276349;28;20462;-62
2021/04/07 00:45:26;;;;;;;2.57;2.40;;;2.90;72.80;;;;;;6276263;28;20470;-63
2021/04/07 00:48:29;;;;;;;4.40;2.83;;;2.90;72.90;;;;;;6276358;28;20496;-63
2021/04/07 00:51:31;;;;;;;5.50;2.90;;;2.80;73.20;;;;;;6276092;28;20478;-64
2021/04/07 00:54:34;;;;;;;2.57;2.13;;;2.90;73.90;;;;;;6276260;28;20474;-63
2021/04/07 00:57:40;;;;;;;2.43;2.23;;;2.80;74.00;;;;;;6276326;28;20984;-63
2021/04/07 01:00:43;;;;;;;2.53;2.33;;;2.80;73.90;;;;;;6276073;28;20462;-62
2021/04/07 01:03:45;;;;;;;3.07;2.63;;;2.80;73.70;;;;;;6276121;28;20942;-62
2021/04/07 01:06:49;;;;;;;2.40;2.20;;;2.70;73.50;;;;;;6276306;28;20477;-62
2021/04/07 01:09:51;;;;;;;2.80;2.60;;;2.60;73.50;;;;;;6275782;28;20486;-62
2021/04/07 01:12:55;;;;;;;2.30;2.10;;;2.40;74.00;;;;;;6276373;28;20480;-62
2021/04/07 01:15:57;;;;;;;2.17;2.07;;;2.40;74.30;;;;;;6275642;28;20497;-62
2021/04/07 01:18:59;;;;;;;2.40;2.20;;;2.40;74.70;;;;;;6275229;28;20451;-61
2021/04/07 01:22:02;;;;;;;3.60;2.67;;;2.40;75.70;;;;;;6276063;28;20450;-62
2021/04/07 01:25:08;;;;;;;3.77;3.00;;;2.30;76.20;;;;;;6275418;28;20458;-62
2021/04/07 01:28:10;;;;;;;3.17;2.90;;;2.30;76.70;;;;;;6275820;28;20419;-62
2021/04/07 01:31:12;;;;;;;3.93;3.53;;;2.20;77.10;;;;;;6275227;28;20474;-63
2021/04/07 01:34:23;;;;;;;6.50;4.33;;;2.20;77.10;;;;;;6275646;28;20462;-63
2021/04/07 01:37:25;;;;;;;5.20;4.00;;;2.10;77.00;;;;;;6275580;28;20469;-62
2021/04/07 01:40:28;;;;;;;8.27;5.50;;;2.00;77.40;;;;;;6275184;28;20804;-63
2021/04/07 01:43:32;;;;;;;5.93;5.13;;;1.90;78.00;;;;;;6275327;28;20478;-62
2021/04/07 01:46:35;;;;;;;7.03;5.00;;;1.80;78.90;;;;;;6275136;28;20466;-64
2021/04/07 01:49:37;;;;;;;7.17;5.50;;;1.70;79.80;;;;;;6275021;28;20478;-63
2021/04/07 01:52:40;;;;;;;5.10;4.60;;;1.70;80.20;;;;;;6274698;28;20477;-64
2021/04/07 01:55:43;;;;;;;6.47;5.10;;;1.80;81.40;;;;;;6274903;28;20508;-63
2021/04/07 01:58:55;;;;;;;6.27;5.67;;;1.80;81.70;;;;;;6275179;28;20466;-63
2021/04/07 02:01:59;;;;;;;7.37;5.40;;;1.90;81.30;;;;;;6274922;28;20779;-61
2021/04/07 02:05:01;;;;;;;5.90;5.10;;;1.80;81.90;;;;;;6275043;28;20504;-63
2021/04/07 02:08:03;;;;;;;6.03;5.43;;;1.70;82.10;;;;;;6275240;28;20470;-62
2021/04/07 02:11:07;;;;;;;7.70;6.33;;;1.70;82.80;;;;;;6274799;28;20976;-63
2021/04/07 02:14:09;;;;;;;9.23;5.90;;;1.60;83.20;;;;;;6274790;28;20483;-62
2021/04/07 02:17:11;;;;;;;8.80;6.07;;;1.50;84.30;;;;;;6274269;28;20481;-62
2021/04/07 02:20:15;;;;;;;5.90;5.30;;;1.40;85.00;;;;;;6274564;28;20489;-63
2021/04/07 02:23:17;;;;;;;6.40;5.67;;;1.50;86.40;;;;;;6274763;28;20500;-63
2021/04/07 02:26:20;;;;;;;6.10;5.50;;;1.40;86.00;;;;;;6274723;28;20470;-63
2021/04/07 02:29:22;;;;;;;9.00;5.57;;;1.40;86.10;;;;;;6274400;28;20474;-63
2021/04/07 02:32:25;;;;;;;5.87;5.37;;;1.50;86.70;;;;;;6274358;28;20470;-63
2021/04/07 02:35:28;;;;;;;7.70;5.80;;;1.50;86.70;;;;;;6275390;28;20942;-63
2021/04/07 02:38:30;;;;;;;5.67;5.00;;;1.50;86.70;;;;;;6275011;28;20469;-63
2021/04/07 02:41:33;;;;;;;4.90;4.50;;;1.60;86.60;;;;;;6274737;28;20473;-62
2021/04/07 02:44:39;;;;;;;6.60;4.83;;;1.60;86.50;;;;;;6274643;28;20482;-63
2021/04/07 02:47:41;;;;;;;7.87;5.40;;;1.60;86.10;;;;;;6275928;28;20474;-62
2021/04/07 02:50:43;;;;;;;6.97;5.93;;;1.60;86.60;;;;;;6275033;28;20473;-63
2021/04/07 02:53:46;;;;;;;9.53;5.47;;;1.60;86.40;;;;;;6276419;28;20470;-62
2021/04/07 02:56:49;;;;;;;6.83;5.20;;;1.50;87.30;;;;;;6276325;28;20477;-63
2021/04/07 02:59:51;;;;;;;7.00;4.70;;;1.50;87.20;;;;;;6275209;28;20981;-63
2021/04/07 03:02:55;;;;;;;4.80;4.03;;;1.50;87.50;;;;;;6275600;28;20978;-62
2021/04/07 03:05:57;;;;;;;7.10;5.47;;;1.60;86.90;;;;;;6275412;28;20818;-63
2021/04/07 03:09:03;;;;;;;5.33;4.30;;;1.60;86.40;;;;;;6276095;28;20549;-63
2021/04/07 03:12:07;;;;;;;6.10;5.10;;;1.60;85.90;;;;;;6274796;28;20474;-63
2021/04/07 03:15:11;;;;;;;6.97;4.83;;;1.60;85.50;;;;;;6273868;28;20824;-62
2021/04/07 03:18:13;;;;;;;5.03;4.53;;;1.50;85.30;;;;;;6274206;28;20470;-62
2021/04/07 03:21:15;;;;;;;4.73;4.20;;;1.50;85.20;;;;;;6274381;28;20480;-63
2021/04/07 03:24:17;;;;;;;4.60;4.17;;;1.50;85.10;;;;;;6274130;28;20475;-63
2021/04/07 03:27:20;;;;;;;4.23;3.77;;;1.50;85.20;;;;;;6273929;28;20477;-62
2021/04/07 03:30:23;;;;;;;3.53;3.23;;;1.50;85.00;;;;;;6277797;28;20474;-62
2021/04/07 03:33:28;;;;;;;4.63;3.97;;;1.40;84.40;;;;;;6278187;28;20492;-64
2021/04/07 03:36:30;;;;;;;5.87;4.10;;;1.40;83.70;;;;;;6278378;28;20470;-62
2021/04/07 03:39:32;;;;;;;7.37;5.50;;;1.40;84.00;;;;;;6278411;28;20477;-61
2021/04/07 03:42:35;;;;;;;5.77;5.27;;;1.40;84.10;;;;;;6278456;28;20476;-62
2021/04/07 03:45:37;;;;;;;6.00;5.50;;;1.40;83.90;;;;;;6279113;28;20467;-63
2021/04/07 03:48:39;;;;;;;6.00;5.10;;;1.30;84.50;;;;;;6278732;28;20484;-61
2021/04/07 03:51:42;;;;;;;5.03;4.33;;;1.30;85.30;;;;;;6278368;28;20508;-62
2021/04/07 03:54:44;;;;;;;4.73;4.33;;;1.20;85.20;;;;;;6278394;28;20475;-62
2021/04/07 03:57:47;;;;;;;5.50;4.47;;;1.20;85.60;;;;;;6278200;28;20542;-62
2021/04/07 04:00:51;;;;;;;7.30;6.17;;;1.20;85.80;;;;;;6278104;28;20462;-63
2021/04/07 04:03:53;;;;;;;6.43;5.83;;;1.30;85.90;;;;;;6277740;28;20489;-63
2021/04/07 04:06:55;;;;;;;6.40;5.80;;;1.40;85.20;;;;;;6277863;28;20481;-63
2021/04/07 04:09:57;;;;;;;10.23;6.70;;;1.40;84.90;;;;;;6277596;28;20517;-62
2021/04/07 04:13:00;;;;;;;8.23;7.40;;;1.40;84.50;;;;;;6268291;28;20496;-62
2021/04/07 04:16:03;;;;;;;9.20;7.30;;;1.40;84.20;;;;;;6277248;28;20787;-62
2021/04/07 04:19:05;;;;;;;8.90;7.07;;;1.40;84.30;;;;;;6277188;28;20446;-62
2021/04/07 04:22:07;;;;;;;6.67;5.97;;;1.40;84.40;;;;;;6277645;28;20501;-63
2021/04/07 04:25:13;;;;;;;6.73;5.87;;;1.50;84.30;;;;;;6276950;28;20937;-62
2021/04/07 04:28:16;;;;;;;7.77;7.00;;;1.50;84.70;;;;;;6277449;28;20423;-63
2021/04/07 04:31:18;;;;;;;7.27;6.67;;;1.50;84.50;;;;;;6276997;28;20486;-63
2021/04/07 04:34:20;;;;;;;10.77;6.30;;;1.50;84.10;;;;;;6276866;28;20464;-63
2021/04/07 04:37:22;;;;;;;6.57;5.90;;;1.50;84.60;;;;;;6276911;28;20909;-63
2021/04/07 04:40:24;;;;;;;6.53;6.03;;;1.60;84.30;;;;;;6276605;28;20462;-62
2021/04/07 04:43:30;;;;;;;8.30;6.17;;;1.60;84.40;;;;;;6276827;28;20524;-65
2021/04/07 04:46:32;;;;;;;9.43;7.47;;;1.70;84.70;;;;;;6276515;28;20467;-63
2021/04/07 04:49:34;;;;;;;6.67;6.07;;;1.70;84.40;;;;;;6276701;28;20462;-63
2021/04/07 04:52:37;;;;;;;8.83;7.97;;;1.80;84.20;;;;;;6276208;28;20462;-63
2021/04/07 04:55:39;;;;;;;9.63;7.40;;;1.90;84.00;;;;;;6276400;28;20493;-62
2021/04/07 04:58:45;;;;;;;8.20;6.77;;;1.90;83.70;;;;;;6276351;28;20473;-63
2021/04/07 05:01:47;;;;;;;8.57;6.77;;;2.00;83.80;;;;;;6276316;28;20478;-63
2021/04/07 05:04:49;;;;;;;7.67;6.23;;;2.10;83.40;;;;;;6275974;28;20474;-63
2021/04/07 05:07:53;;;;;;;7.73;7.13;;;2.20;83.20;;;;;;6276525;28;20466;-63
2021/04/07 05:10:55;;;;;;;11.13;7.57;;;2.30;82.80;;;;;;6275999;28;20489;-62
2021/04/07 05:13:58;;;;;;;8.67;7.83;;;2.30;82.20;;;;;;6271670;28;20478;-63
2021/04/07 05:17:00;;;;;;;8.60;7.30;;;2.40;82.30;;;;;;6275443;28;20489;-62
2021/04/07 05:20:06;;;;;;;9.67;7.77;;;2.50;81.30;;;;;;6275550;28;20991;-62
2021/04/07 05:23:10;;;;;;;8.00;7.30;;;2.50;80.50;;;;;;6275473;28;20966;-63
2021/04/07 05:26:12;;;;;;;8.63;7.83;;;2.70;80.00;;;;;;6275464;28;20978;-62
2021/04/07 05:29:15;;;;;;;6.87;6.27;;;2.70;79.00;;;;;;6275724;28;20478;-62
2021/04/07 05:32:18;;;;;;;7.47;6.70;;;2.70;79.00;;;;;;6275559;28;20477;-62
2021/04/07 05:35:20;;;;;;;8.27;7.37;;;2.70;78.70;;;;;;6275514;28;20954;-62
2021/04/07 05:38:23;;;;;;;8.80;7.60;;;2.80;78.80;;;;;;6275389;28;20462;-62
2021/04/07 05:41:26;;;;;;;8.23;6.50;;;2.70;78.70;;;;;;6275546;28;20922;-63
2021/04/07 05:44:29;;;;;;;6.70;6.07;;;2.60;79.40;;;;;;6275399;28;20474;-63
2021/04/07 05:47:32;;;;;;;11.43;5.80;;;2.60;80.10;;;;;;6275118;28;20470;-63
2021/04/07 05:50:37;;;;;;;6.80;6.20;;;2.60;80.00;;;;;;6274115;28;20974;-63
2021/04/07 05:53:39;;;;;;;6.07;5.47;;;2.60;78.80;;;;;;6274783;28;20988;-63
2021/04/07 05:56:59;;;;;;;9.47;6.43;;;2.60;79.70;;;;;;6275514;28;20474;-63
2021/04/07 06:00:02;;;;;;;7.97;5.40;;;2.80;79.70;;;;;;6274877;28;20474;-63
2021/04/07 06:03:06;;;;;;;9.70;6.60;;;2.90;78.90;;;;;;6274934;28;20489;-62
2021/04/07 06:06:08;;;;;;;10.40;7.13;;;3.00;77.50;;;;;;6274826;28;20481;-62
2021/04/07 06:09:10;;;;;;;7.70;5.80;;;3.10;77.30;;;;;;6274769;28;20804;-63
2021/04/07 06:12:12;;;;;;;6.90;5.80;;;3.20;76.70;;;;;;6273966;28;21173;-62
2021/04/07 06:15:16;;;;;;;6.63;5.60;;;3.30;75.30;;;;;;6272260;28;20481;-62
2021/04/07 06:18:18;;;;;;;8.77;6.90;;;3.40;74.80;;;;;;6271951;28;20551;-63
2021/04/07 06:21:20;;;;;;;6.73;5.67;;;3.70;74.30;;;;;;6272053;28;20547;-62
2021/04/07 06:24:23;;;;;;;9.10;6.43;;;3.90;73.40;;;;;;6272757;28;20958;-62
2021/04/07 06:27:25;;;;;;;6.27;5.70;;;4.10;72.30;;;;;;6274019;28;20489;-62
2021/04/07 06:30:42;;;;;;;11.53;6.20;;;4.30;71.20;;;;;;6274369;28;20485;-62
2021/04/07 06:33:44;;;;;;;7.67;5.90;;;4.60;70.20;;;;;;6274891;28;20516;-63
2021/04/07 06:36:47;;;;;;;6.30;5.70;;;4.80;68.50;;;;;;6274148;28;20485;-63
2021/04/07 06:39:49;;;;;;;7.57;6.70;;;5.10;67.60;;;;;;6272113;28;20466;-65
2021/04/07 06:42:51;;;;;;;7.30;5.83;;;5.40;67.10;;;;;;6272313;28;20813;-62
2021/04/07 06:45:55;;;;;;;7.50;6.63;;;5.70;65.20;;;;;;6272282;28;20479;-63
2021/04/07 06:48:58;;;;;;;9.40;6.90;;;6.10;64.00;;;;;;6272247;28;20478;-62
2021/04/07 06:52:03;;;;;;;9.37;6.60;;;6.40;65.60;;;;;;6272428;28;21020;-64
2021/04/07 06:55:08;;;;;;;8.17;7.10;;;6.60;62.40;;;;;;6274311;28;20451;-62
2021/04/07 06:58:11;;;;;;;6.70;6.00;;;7.10;60.80;;;;;;6274310;28;20761;-62
2021/04/07 07:01:14;;;;;;;9.10;5.63;;;7.40;58.50;;;;;;6274357;28;20435;-62
2021/04/07 07:04:17;;;;;;;8.73;6.03;;;8.00;57.40;;;;;;6278498;28;20450;-62
2021/04/07 07:07:19;;;;;;;7.30;6.20;;;8.60;55.70;;;;;;6279041;28;20442;-62
2021/04/07 07:10:32;;;;;;;6.97;5.00;;;8.80;54.00;;;;;;6278531;28;20829;-62
2021/04/07 07:13:35;;;;;;;9.40;6.10;;;9.30;52.90;;;;;;6278451;28;20466;-62
2021/04/07 07:16:43;;;;;;;6.33;5.70;;;9.90;51.30;;;;;;6278765;28;20478;-62
2021/04/07 07:19:49;;;;;;;10.03;6.00;;;10.30;49.00;;;;;;6279002;28;20470;-62
2021/04/07 07:22:51;;;;;;;8.00;7.00;;;10.60;47.40;;;;;;6269328;28;20482;-62
2021/04/07 07:25:58;;;;;;;10.60;6.90;;;10.30;47.40;;;;;;6278393;28;20481;-63
2021/04/07 07:29:07;;;;;;;9.50;7.20;;;10.60;47.60;;;;;;6278659;28;20480;-63
2021/04/07 07:32:12;;;;;;;7.63;6.50;;;10.40;47.20;;;;;;6277967;28;20485;-63
2021/04/07 07:35:16;;;;;;;7.70;6.10;;;10.50;47.60;;;;;;6277279;28;20480;-63
2021/04/07 07:38:23;;;;;;;7.17;5.87;;;10.70;46.90;;;;;;6276924;28;20961;-63
2021/04/07 07:41:29;;;;;;;8.17;6.10;;;10.70;45.60;;;;;;6263638;28;20854;-64
2021/04/07 07:44:50;;;;;;;8.87;5.90;;;10.60;45.90;;;;;;6274229;28;20557;-63
2021/04/07 07:48:11;;;;;;;8.03;6.47;;;10.40;45.10;;;;;;6273096;28;20481;-66
2021/04/07 07:51:15;;;;;;;9.17;6.60;;;10.10;45.50;;;;;;6274967;28;20497;-66
2021/04/07 07:54:19;;;;;;;8.80;5.80;;;9.70;47.50;;;;;;6277464;28;20470;-64
2021/04/07 07:57:21;;;;;;;9.80;5.17;;;9.40;48.10;;;;;;6267629;28;20551;-65
2021/04/07 08:00:25;;;;;;;6.40;5.00;;;9.50;47.90;;;;;;6252355;28;20475;-65
2021/04/07 08:03:30;;;;;;;8.73;5.97;;;9.60;47.80;;;;;;6259323;28;20783;-64
2021/04/07 08:06:33;;;;;;;6.83;5.17;;;10.00;46.70;;;;;;6253256;28;20459;-64
2021/04/07 08:09:35;;;;;;;5.53;4.13;;;10.50;45.90;;;;;;6276032;28;20817;-64
2021/04/07 08:12:38;;;;;;;6.70;4.00;;;11.00;43.70;;;;;;6273424;28;20993;-64
2021/04/07 08:15:41;;;;;;;5.43;2.63;;;11.50;41.40;;;;;;6273283;28;20470;-64
2021/04/07 08:18:46;;;;;;;5.97;3.17;;;12.80;39.60;;;;;;6276328;28;20475;-64
2021/04/07 08:21:48;;;;;;;13.77;6.63;;;14.40;37.80;;;;;;6276885;28;20489;-61
2021/04/07 08:24:52;;;;;;;6.73;4.07;;;16.10;35.80;;;;;;6276958;28;20796;-64
2021/04/07 08:27:55;;;;;;;6.67;3.20;;;17.40;32.70;;;;;;6267519;28;20485;-65
2021/04/07 08:30:58;;;;;;;3.80;2.50;;;19.40;30.60;;;;;;6276669;28;20479;-64
2021/04/07 08:34:04;;;;;;;4.13;2.47;;;20.60;27.10;;;;;;6276419;28;20478;-64
2021/04/07 08:37:07;;;;;;;3.23;2.33;;;21.60;24.60;;;;;;6276736;28;20212;-64
2021/04/07 08:40:11;;;;;;;5.00;1.80;;;21.10;23.20;;;;;;6276684;28;20215;-64
2021/04/07 08:43:14;;;;;;;4.00;3.00;;;19.40;23.90;;;;;;6276363;28;20215;-65
2021/04/07 08:46:20;;;;;;;5.80;2.17;;;19.50;24.00;;;;;;6276305;28;20740;-64
2021/04/07 08:49:41;;;;;;;2.93;1.80;;;20.60;23.50;;;;;;6275324;28;20666;-64
2021/04/07 08:52:45;;;;;;;4.00;2.40;;;20.70;21.90;;;;;;6274956;28;20230;-65
2021/04/07 08:55:54;;;;;;;1.67;1.47;;;21.10;22.90;;;;;;6276163;28;20232;-64
2021/04/07 08:58:59;;;;;;;2.40;2.13;;;21.30;22.40;;;;;;6275937;28;20796;-64
2021/04/07 09:02:06;;;;;;;2.40;2.03;;;20.30;22.50;;;;;;6276247;28;20238;-63
2021/04/07 09:05:11;;;;;;;3.47;1.73;;;18.70;23.30;;;;;;6276111;28;20246;-65
2021/04/07 09:08:16;;;;;;;1.80;1.70;;;17.20;24.20;;;;;;6275576;28;20988;-63
2021/04/07 09:11:29;;;;;;;3.37;1.90;;;16.90;24.40;;;;;;6275873;28;20479;-63
2021/04/07 09:14:35;;;;;;;4.93;1.80;;;16.00;24.70;;;;;;6275591;28;20470;-63
2021/04/07 09:17:43;;;;;;;4.07;1.50;;;15.90;25.40;;;;;;6274861;28;20873;-64
2021/04/07 09:20:52;;;;;;;1.70;1.60;;;15.60;25.50;;;;;;6250467;28;20811;-63
2021/04/07 09:23:57;;;;;;;2.70;1.60;;;15.20;25.90;;;;;;6250679;28;20486;-64
2021/04/07 09:27:00;;;;;;;1.93;1.77;;;15.10;26.00;;;;;;6250575;28;20554;-62
2021/04/07 09:30:02;;;;;;;3.27;1.83;;;15.20;25.70;;;;;;6246032;28;20485;-63
2021/04/07 09:33:07;;;;;;;1.77;1.67;;;14.50;26.00;;;;;;6250401;28;20538;-63
2021/04/07 09:36:11;;;;;;;3.57;1.80;;;14.10;25.20;;;;;;6250419;28;20482;-63
2021/04/07 09:39:15;;;;;;;3.70;1.67;;;14.10;25.00;;;;;;6250576;28;20474;-64
2021/04/07 09:42:18;;;;;;;1.90;1.67;;;15.10;25.70;;;;;;6270863;28;20463;-64
2021/04/07 09:45:24;;;;;;;2.83;2.03;;;16.60;24.80;;;;;;6274933;28;20489;-64
2021/04/07 09:48:44;;;;;;;1.30;1.20;;;16.50;23.00;;;;;;6274451;28;20474;-65
2021/04/07 09:51:50;;;;;;;1.30;1.20;;;15.80;22.60;;;;;;6274656;28;20620;-63
2021/04/07 09:54:52;;;;;;;2.10;1.10;;;14.70;23.20;;;;;;6259092;28;20982;-63
2021/04/07 09:57:59;;;;;;;1.13;1.03;;;13.70;23.80;;;;;;6249987;28;20537;-63
2021/04/07 10:01:01;;;;;;;1.43;1.20;;;12.90;25.00;;;;;;6257592;28;20481;-63
2021/04/07 10:04:03;;;;;;;1.50;1.40;;;12.30;25.70;;;;;;6274503;28;20466;-64
2021/04/07 10:07:11;;;;;;;1.23;1.13;;;12.00;26.30;;;;;;6273013;28;20453;-64
2021/04/07 10:10:15;;;;;;;2.30;1.10;;;11.60;26.70;;;;;;6272547;28;20427;-64
2021/04/07 10:13:18;;;;;;;1.93;1.17;;;11.20;27.00;;;;;;6266775;28;20500;-63
2021/04/07 10:16:20;;;;;;;1.33;1.33;;;10.60;27.30;;;;;;6259749;28;20886;-63
2021/04/07 10:19:28;;;;;;;1.77;1.07;;;9.80;28.90;;;;;;6267393;28;20469;-64
2021/04/07 10:22:32;;;;;;;1.37;1.10;;;9.30;29.80;;;;;;6270380;28;20596;-63
2021/04/07 10:25:35;;;;;;;2.67;2.47;;;9.00;31.30;;;;;;6272117;28;20470;-63
2021/04/07 10:28:37;;;;;;;1.20;1.10;;;8.80;31.50;;;;;;6271917;28;20511;-63
2021/04/07 10:31:39;;;;;;;2.90;1.77;;;8.80;31.70;;;;;;6262733;28;20976;-64
2021/04/07 10:34:45;;;;;;;2.93;1.47;;;8.70;31.80;;;;;;6272354;28;20478;-63
2021/04/07 10:37:52;;;;;;;1.93;1.70;;;8.60;32.20;;;;;;6274379;28;20481;-63
2021/04/07 10:40:59;;;;;;;1.37;1.27;;;8.40;33.40;;;;;;6252611;28;20490;-63
2021/04/07 10:44:01;;;;;;;1.23;1.20;;;8.40;33.90;;;;;;6252353;28;20471;-63
2021/04/07 10:47:14;;;;;;;1.50;1.40;;;8.30;33.60;;;;;;6274072;28;20474;-63
2021/04/07 10:50:17;;;;;;;1.60;1.50;;;8.40;34.60;;;;;;6276935;28;20799;-62
2021/04/07 10:53:32;;;;;;;1.93;1.27;;;8.50;34.60;;;;;;6273633;28;20478;-63
2021/04/07 10:56:34;;;;;;;1.67;1.47;;;8.70;33.80;;;;;;6266587;28;20487;-64
2021/04/07 10:59:37;;;;;;;1.20;1.10;;;9.00;34.40;;;;;;6278462;28;20462;-63
2021/04/07 11:02:41;;;;;;;1.50;1.40;;;9.30;33.10;;;;;;6275462;28;20476;-63
2021/04/07 11:05:46;;;;;;;1.10;1.00;;;9.70;32.70;;;;;;6278580;28;20549;-63
2021/04/07 11:08:51;;;;;;;1.10;1.00;;;9.80;31.50;;;;;;6278830;28;20466;-63
2021/04/07 11:11:58;;;;;;;1.27;1.17;;;9.80;30.80;;;;;;6278267;28;20582;-63
2021/04/07 11:15:04;;;;;;;1.67;0.97;;;10.20;29.20;;;;;;6278481;28;20485;-64
2021/04/07 11:18:07;;;;;;;1.47;1.10;;;10.70;28.80;;;;;;6278631;28;20477;-62
2021/04/07 11:21:14;;;;;;;3.27;0.90;;;11.30;28.10;;;;;;6278342;28;20978;-63
2021/04/07 11:24:18;;;;;;;1.20;1.10;;;11.80;26.90;;;;;;6296982;28;20484;-64
2021/04/07 11:27:20;;;;;;;0.83;0.83;;;11.80;25.80;;;;;;6303063;28;20476;-63
2021/04/07 11:30:23;;;;;;;1.40;1.00;;;11.70;25.80;;;;;;6302843;28;20480;-61
2021/04/07 11:33:27;;;;;;;1.97;1.17;;;11.60;25.70;;;;;;6302722;28;20976;-63
2021/04/07 11:37:00;;;;;;;1.03;0.77;;;11.80;26.60;;;;;;6275818;28;20482;-63
2021/04/07 11:40:07;;;;;;;1.17;0.90;;;12.10;26.50;;;;;;6279701;28;20446;-64
2021/04/07 11:43:14;;;;;;;1.13;1.03;;;12.10;24.60;;;;;;6302395;28;20461;-63
2021/04/07 11:46:19;;;;;;;1.07;0.90;;;12.20;25.20;;;;;;6273880;28;20497;-64
2021/04/07 11:49:21;;;;;;;1.80;0.80;;;12.50;25.40;;;;;;6274537;28;20445;-64
2021/04/07 11:52:28;;;;;;;0.90;0.90;;;12.80;25.20;;;;;;6275290;28;20476;-64
2021/04/07 11:55:31;;;;;;;1.50;1.10;;;12.30;24.60;;;;;;6275564;28;21169;-63
2021/04/07 11:58:33;;;;;;;1.10;0.90;;;11.90;24.50;;;;;;6274362;28;20470;-65
2021/04/07 12:01:35;;;;;;;0.97;0.97;;;11.70;25.40;;;;;;6273937;28;20471;-64
2021/04/07 12:04:37;;;;;;;1.10;0.87;;;11.30;24.50;;;;;;6273729;28;20938;-63
2021/04/07 12:07:42;;;;;;;1.07;0.93;;;11.30;25.00;;;;;;6261568;28;20471;-64
2021/04/07 12:10:45;;;;;;;0.80;0.80;;;11.10;24.60;;;;;;6262163;28;20466;-64
2021/04/07 12:13:47;;;;;;;1.33;1.23;;;11.10;24.80;;;;;;6275261;28;20478;-64
2021/04/07 12:16:49;;;;;;;0.97;0.93;;;11.10;25.10;;;;;;6277125;28;20462;-64
2021/04/07 12:19:52;;;;;;;0.90;0.90;;;10.90;25.30;;;;;;6277288;28;20477;-63
2021/04/07 12:22:54;;;;;;;0.90;0.90;;;10.80;24.80;;;;;;6270356;28;20494;-63
2021/04/07 12:26:00;;;;;;;1.50;0.90;;;10.50;25.00;;;;;;6271563;28;20818;-63
2021/04/07 12:29:03;;;;;;;3.23;1.00;;;10.10;25.50;;;;;;6270145;28;20800;-64
2021/04/07 12:32:07;;;;;;;0.97;0.90;;;9.90;26.30;;;;;;6276882;28;20477;-64
2021/04/07 12:35:11;;;;;;;1.77;1.67;;;9.80;27.10;;;;;;6274783;28;20474;-64
2021/04/07 12:38:13;;;;;;;1.13;1.10;;;9.90;27.70;;;;;;6267853;28;20474;-64
2021/04/07 12:41:22;;;;;;;1.30;1.00;;;10.10;26.80;;;;;;6276614;28;20466;-64
2021/04/07 12:44:24;;;;;;;1.90;0.93;;;10.00;27.00;;;;;;6276183;28;20966;-65
2021/04/07 12:47:27;;;;;;;2.30;1.10;;;9.90;28.20;;;;;;6274464;28;20535;-64
2021/04/07 12:50:29;;;;;;;3.97;1.10;;;9.90;28.70;;;;;;6275916;28;20462;-64
2021/04/07 12:53:32;;;;;;;1.23;0.87;;;10.20;27.50;;;;;;6273927;28;20481;-64
2021/04/07 12:56:35;;;;;;;4.57;1.40;;;10.20;26.00;;;;;;6273644;28;20812;-62
2021/04/07 12:59:37;;;;;;;1.50;1.37;;;10.30;26.20;;;;;;6273459;28;20644;-63
2021/04/07 13:02:39;;;;;;;1.20;1.20;;;10.30;26.70;;;;;;6275870;28;20458;-64
2021/04/07 13:05:42;;;;;;;1.70;1.10;;;10.30;25.90;;;;;;6273253;28;20998;-63
2021/04/07 13:08:44;;;;;;;2.23;1.17;;;10.30;25.70;;;;;;6263993;28;20785;-63
2021/04/07 13:11:48;;;;;;;2.50;1.53;;;10.10;25.40;;;;;;6275601;28;20985;-64
2021/04/07 13:14:53;;;;;;;2.13;1.60;;;10.40;26.10;;;;;;6275566;28;20481;-62
2021/04/07 13:17:55;;;;;;;4.00;1.00;;;10.60;26.50;;;;;;6273676;28;20485;-62
2021/04/07 13:21:04;;;;;;;1.30;1.10;;;10.90;25.80;;;;;;6271751;28;20486;-61
2021/04/07 13:24:08;;;;;;;1.30;1.20;;;11.10;25.60;;;;;;6259869;28;20486;-63
2021/04/07 13:27:11;;;;;;;1.20;0.90;;;11.30;25.60;;;;;;6271347;28;20491;-63
2021/04/07 13:30:15;;;;;;;1.47;1.37;;;11.50;24.80;;;;;;6268694;28;20474;-62
2021/04/07 13:33:18;;;;;;;0.87;0.87;;;11.70;25.10;;;;;;6272963;28;20990;-63
2021/04/07 13:36:23;;;;;;;1.30;1.20;;;11.90;23.70;;;;;;6273265;28;20470;-62
2021/04/07 13:39:38;;;;;;;1.10;1.00;;;12.00;23.50;;;;;;6268698;28;20473;-62
2021/04/07 13:42:43;;;;;;;0.90;0.90;;;12.00;23.70;;;;;;6267601;28;20466;-64
2021/04/07 13:45:45;;;;;;;0.80;0.70;;;11.90;23.70;;;;;;6266249;28;20484;-64
2021/04/07 13:48:48;;;;;;;4.60;1.23;;;11.80;23.70;;;;;;6257956;28;20497;-64
2021/04/07 13:51:50;;;;;;;2.50;1.03;;;11.70;23.10;;;;;;6275261;28;20489;-64
2021/04/07 13:54:55;;;;;;;2.60;1.20;;;11.10;22.90;;;;;;6256370;28;20474;-64
2021/04/07 13:57:59;;;;;;;1.40;1.10;;;10.70;23.50;;;;;;6270418;28;20466;-64
2021/04/07 14:01:01;;;;;;;0.80;0.80;;;10.40;24.60;;;;;;6271609;28;20489;-64
2021/04/07 14:04:03;;;;;;;1.17;1.00;;;10.00;25.30;;;;;;6297348;28;20465;-62
2021/04/07 14:07:09;;;;;;;3.13;1.57;;;9.70;27.00;;;;;;6273065;28;20442;-64
2021/04/07 14:10:15;;;;;;;2.00;1.60;;;9.60;27.60;;;;;;6273844;28;20916;-64
2021/04/07 14:13:18;;;;;;;3.00;1.17;;;9.60;26.90;;;;;;6273740;28;20478;-64
2021/04/07 14:16:20;;;;;;;0.87;0.80;;;9.50;26.10;;;;;;6261954;28;20449;-64
2021/04/07 14:19:22;;;;;;;1.07;0.73;;;9.40;26.10;;;;;;6271668;28;20922;-63
2021/04/07 14:22:25;;;;;;;3.20;1.00;;;9.40;27.00;;;;;;6266663;28;20467;-63
2021/04/07 14:25:29;;;;;;;1.10;0.80;;;9.40;26.20;;;;;;6254849;28;20467;-63
2021/04/07 14:28:32;;;;;;;0.93;0.90;;;9.30;26.50;;;;;;6266621;28;20454;-64
2021/04/07 14:31:34;;;;;;;0.93;0.77;;;9.10;27.00;;;;;;6272251;28;20480;-63
2021/04/07 14:34:37;;;;;;;2.13;1.00;;;9.10;27.80;;;;;;6273880;28;20466;-63
2021/04/07 14:37:39;;;;;;;0.80;0.80;;;9.10;27.70;;;;;;6272151;28;20485;-63
2021/04/07 14:40:41;;;;;;;2.57;1.10;;;9.10;28.00;;;;;;6274167;28;20957;-63
2021/04/07 14:43:44;;;;;;;0.93;0.93;;;9.10;28.20;;;;;;6253534;28;21044;-63
2021/04/07 14:46:47;;;;;;;1.10;1.00;;;9.20;27.80;;;;;;6274329;28;20481;-62
2021/04/07 14:49:50;;;;;;;1.50;1.40;;;9.30;27.80;;;;;;6271764;28;20993;-63
2021/04/07 14:52:53;;;;;;;2.50;1.40;;;9.50;27.90;;;;;;6264026;28;20488;-64
2021/04/07 14:55:55;;;;;;;1.33;0.93;;;9.60;27.40;;;;;;6251504;28;20914;-63
2021/04/07 14:58:58;;;;;;;1.27;0.93;;;9.60;27.40;;;;;;6263888;28;20486;-62
2021/04/07 15:02:01;;;;;;;0.80;0.80;;;9.80;28.00;;;;;;6265636;28;20969;-65
2021/04/07 15:05:04;;;;;;;1.30;1.20;;;10.10;27.30;;;;;;6271742;28;20482;-63
2021/04/07 15:08:06;;;;;;;0.83;0.83;;;10.10;26.80;;;;;;6271716;28;20797;-62
2021/04/07 15:11:09;;;;;;;0.90;0.90;;;10.00;26.10;;;;;;6271696;28;20474;-64
2021/04/07 15:14:12;;;;;;;3.50;1.03;;;9.90;27.00;;;;;;6271538;28;20477;-63
2021/04/07 15:17:15;;;;;;;1.30;1.07;;;9.80;26.90;;;;;;6271409;28;20481;-59
2021/04/07 15:20:19;;;;;;;1.20;1.10;;;9.70;26.40;;;;;;6271498;28;20847;-59
2021/04/07 15:23:22;;;;;;;1.70;0.80;;;9.50;26.20;;;;;;6272531;28;20779;-59
2021/04/07 15:26:28;;;;;;;2.60;1.00;;;9.10;26.20;;;;;;6252755;28;20560;-59
2021/04/07 15:29:31;;;;;;;1.77;1.20;;;9.00;26.10;;;;;;6251319;28;20578;-59
2021/04/07 15:32:33;;;;;;;1.00;1.00;;;8.90;25.90;;;;;;6250972;28;20475;-58
2021/04/07 15:35:35;;;;;;;1.23;1.07;;;8.60;25.90;;;;;;6253382;28;20471;-60
2021/04/07 15:38:58;;;;;;;1.40;0.93;;;8.30;27.10;;;;;;6275937;28;20474;-60
2021/04/07 15:42:00;;;;;;;4.47;0.90;;;8.00;28.40;;;;;;6275381;28;20465;-59
2021/04/07 15:45:04;;;;;;;1.17;0.90;;;7.90;28.90;;;;;;6275980;28;20520;-59
2021/04/07 15:48:07;;;;;;;1.23;1.13;;;7.90;29.10;;;;;;6266528;28;20482;-58
2021/04/07 15:51:09;;;;;;;3.50;1.30;;;7.90;29.30;;;;;;6275744;28;20471;-59
2021/04/07 15:54:12;;;;;;;1.50;1.00;;;7.90;29.90;;;;;;6275272;28;20478;-58
2021/04/07 15:57:14;;;;;;;2.20;1.30;;;7.80;30.40;;;;;;6275705;28;20493;-58
2021/04/07 16:00:19;;;;;;;2.20;1.30;;;7.70;31.10;;;;;;6254178;28;20779;-59
2021/04/07 16:03:22;;;;;;;3.40;1.87;;;7.70;32.20;;;;;;6280455;28;20987;-61
2021/04/07 16:06:24;;;;;;;1.07;0.90;;;7.80;32.80;;;;;;6250356;28;20470;-61